Time,TemperatureF,DewpointF,PressureIn,WindDirection,WindDirectionDegrees,WindSpeedMPH,WindSpeedGustMPH,Humidity,HourlyPrecipIn,Conditions,Clouds,dailyrainin,SolarRadiationWatts/m^2,SoftwareType,DateUTC
2013-09-09 00:00:00,52.1,41.1,30.03,West,271,0.0,3.0,66,0.00,,CLR,0.00,0.00,VWS V14.01,2013-09-09 04:00:00,
2013-09-09 00:01:00,50.7,40.9,30.05,West,271,2.0,2.0,69,0.00,,CLR,0.00,0.00,VWS V14.01,2013-09-09 04:01:00,
2013-09-09 00:02:00,50.6,40.8,30.06,SSW,202,2.0,3.0,69,0.00,,CLR,0.00,0.00,VWS V14.01,2013-09-09 04:02:00,
2013-09-09 00:03:00,50.6,41.2,30.05,SSW,192,1.0,3.0,70,0.00,,CLR,0.00,0.00,VWS V14.01,2013-09-09 04:03:00,
2013-09-09 00:05:00,50.5,41.1,30.06,SSW,192,0.0,3.0,70,0.00,,CLR,0.00,0.00,VWS V14.01,2013-09-09 04:05:00,
2013-09-09 00:10:00,50.1,40.7,30.04,SSW,192,2.0,3.0,70,0.00,,CLR,0.00,0.00,VWS V14.01,2013-09-09 04:10:00,
2013-09-09 00:15:00,50.0,41.0,30.04,WNW,302,0.0,3.0,71,0.00,,CLR,0.00,0.00,VWS V14.01,2013-09-09 04:15:00,
2013-09-09 00:20:00,50.0,41.0,30.05,WNW,302,0.0,1.0,71,0.00,,CLR,0.00,0.00,VWS V14.01,2013-09-09 04:20:00,
2013-09-09 00:25:00,51.2,41.0,30.04,West,271,1.0,2.0,68,0.00,,CLR,0.00,0.00,VWS V14.01,2013-09-09 04:25:00,
2013-09-09 00:26:00,49.7,40.7,30.06,WNW,302,0.0,0.0,71,0.00,,CLR,0.00,0.00,VWS V14.01,2013-09-09 04:26:00,
2013-09-09 00:30:00,51.1,40.9,30.05,West,271,0.0,1.0,68,0.00,,CLR,0.00,0.00,VWS V14.01,2013-09-09 04:30:00,
2013-09-09 00:31:00,49.4,40.8,30.05,WNW,302,0.0,1.0,72,0.00,,CLR,0.00,0.00,VWS V14.01,2013-09-09 04:31:00,
2013-09-09 00:35:00,50.9,41.1,30.03,West,271,2.0,2.0,69,0.00,,CLR,0.00,0.00,VWS V14.01,2013-09-09 04:35:00,
2013-09-09 00:36:00,49.1,41.2,30.05,WNW,302,0.0,1.0,74,0.00,,CLR,0.00,0.00,VWS V14.01,2013-09-09 04:36:00,
2013-09-09 00:40:00,50.8,40.6,30.03,West,271,2.0,3.0,68,0.00,,CLR,0.00,0.00,VWS V14.01,2013-09-09 04:40:00,
2013-09-09 00:41:00,48.7,40.8,30.06,WNW,302,1.0,3.0,74,0.00,,CLR,0.00,0.00,VWS V14.01,2013-09-09 04:41:00,
2013-09-09 00:45:00,50.9,40.7,30.05,West,271,0.0,2.0,68,0.00,,CLR,0.00,0.00,VWS V14.01,2013-09-09 04:45:00,
2013-09-09 00:46:00,48.4,40.8,30.04,WNW,302,1.0,1.0,75,0.00,,CLR,0.00,0.00,VWS V14.01,2013-09-09 04:46:00,
2013-09-09 00:50:00,50.9,40.7,30.05,West,271,1.0,1.0,68,0.00,,CLR,0.00,0.00,VWS V14.01,2013-09-09 04:50:00,
2013-09-09 00:51:00,48.2,40.7,30.04,WNW,302,0.0,3.0,75,0.00,,CLR,0.00,0.00,VWS V14.01,2013-09-09 04:51:00,
2013-09-09 00:55:00,50.7,40.9,30.04,West,272,3.0,4.0,69,0.00,,CLR,0.00,0.00,VWS V14.01,2013-09-09 04:55:00,
2013-09-09 00:56:00,47.9,40.7,30.06,WNW,302,0.0,1.0,76,0.00,,CLR,0.00,0.00,VWS V14.01,2013-09-09 04:56:00,
2013-09-09 01:00:00,50.6,40.8,30.05,West,272,0.0,3.0,69,0.00,,CLR,0.00,0.00,VWS V14.01,2013-09-09 05:00:00,
2013-09-09 01:02:00,47.8,40.6,30.06,WNW,302,0.0,1.0,76,0.00,,CLR,0.00,0.00,VWS V14.01,2013-09-09 05:02:00,
2013-09-09 01:05:00,50.7,40.9,30.05,SSW,202,2.0,3.0,69,0.00,,CLR,0.00,0.00,VWS V14.01,2013-09-09 05:05:00,
2013-09-09 01:07:00,47.7,40.8,30.05,WNW,302,2.0,4.0,77,0.00,,CLR,0.00,0.00,VWS V14.01,2013-09-09 05:07:00,
2013-09-09 01:10:00,50.4,41.0,30.05,SSW,192,0.0,3.0,70,0.00,,CLR,0.00,0.00,VWS V14.01,2013-09-09 05:10:00,
2013-09-09 01:12:00,47.6,40.8,30.06,WNW,302,0.0,2.0,77,0.00,,CLR,0.00,0.00,VWS V14.01,2013-09-09 05:12:00,
2013-09-09 01:15:00,50.0,40.6,30.04,NW,306,1.0,4.0,70,0.00,,CLR,0.00,0.00,VWS V14.01,2013-09-09 05:15:00,
2013-09-09 01:17:00,47.5,41.0,30.05,WNW,302,0.0,1.0,78,0.00,,CLR,0.00,0.00,VWS V14.01,2013-09-09 05:17:00,
2013-09-09 01:20:00,50.0,40.6,30.04,WNW,302,0.0,3.0,70,0.00,,CLR,0.00,0.00,VWS V14.01,2013-09-09 05:20:00,
2013-09-09 01:22:00,47.3,40.8,30.05,WNW,302,2.0,2.0,78,0.00,,CLR,0.00,0.00,VWS V14.01,2013-09-09 05:22:00,
2013-09-09 01:25:00,49.9,40.9,30.05,WNW,302,0.0,1.0,71,0.00,,CLR,0.00,0.00,VWS V14.01,2013-09-09 05:25:00,
2013-09-09 01:27:00,47.2,40.7,30.06,WNW,302,2.0,3.0,78,0.00,,CLR,0.00,0.00,VWS V14.01,2013-09-09 05:27:00,
2013-09-09 01:30:00,49.6,40.6,30.06,WNW,302,0.0,1.0,71,0.00,,CLR,0.00,0.00,VWS V14.01,2013-09-09 05:30:00,
2013-09-09 01:32:00,47.2,41.0,30.06,WNW,302,0.0,0.0,79,0.00,,CLR,0.00,0.00,VWS V14.01,2013-09-09 05:32:00,
2013-09-09 01:35:00,49.4,40.8,30.05,WNW,302,1.0,1.0,72,0.00,,CLR,0.00,0.00,VWS V14.01,2013-09-09 05:35:00,
2013-09-09 01:37:00,47.1,40.6,30.06,WNW,302,3.0,3.0,78,0.00,,CLR,0.00,0.00,VWS V14.01,2013-09-09 05:37:00,
2013-09-09 01:40:00,49.0,41.1,30.05,WNW,302,1.0,1.0,74,0.00,,CLR,0.00,0.00,VWS V14.01,2013-09-09 05:40:00,
2013-09-09 01:42:00,47.1,40.6,30.06,WNW,302,0.0,0.0,78,0.00,,CLR,0.00,0.00,VWS V14.01,2013-09-09 05:42:00,
2013-09-09 01:45:00,48.6,40.7,30.06,WNW,302,0.0,3.0,74,0.00,,CLR,0.00,0.00,VWS V14.01,2013-09-09 05:45:00,
2013-09-09 01:47:00,46.8,40.6,30.05,WNW,302,0.0,1.0,79,0.00,,CLR,0.00,0.00,VWS V14.01,2013-09-09 05:47:00,
2013-09-09 01:50:00,48.4,40.8,30.04,WNW,302,1.0,2.0,75,0.00,,CLR,0.00,0.00,VWS V14.01,2013-09-09 05:50:00,
2013-09-09 01:52:00,46.5,40.3,30.05,WNW,302,0.0,0.0,79,0.00,,CLR,0.00,0.00,VWS V14.01,2013-09-09 05:52:00,
2013-09-09 01:55:00,48.2,40.7,30.04,WNW,302,0.0,3.0,75,0.00,,CLR,0.00,0.00,VWS V14.01,2013-09-09 05:55:00,
2013-09-09 01:58:00,46.4,40.2,30.07,WNW,302,0.0,0.0,79,0.00,,CLR,0.00,0.00,VWS V14.01,2013-09-09 05:58:00,
2013-09-09 02:00:00,47.9,40.7,30.06,WNW,302,0.0,1.0,76,0.00,,CLR,0.00,0.00,VWS V14.01,2013-09-09 06:00:00,
2013-09-09 02:03:00,46.2,40.4,30.07,WNW,302,3.0,3.0,80,0.00,,CLR,0.00,0.00,VWS V14.01,2013-09-09 06:03:00,
2013-09-09 02:05:00,47.8,40.6,30.06,WNW,302,0.0,1.0,76,0.00,,CLR,0.00,0.00,VWS V14.01,2013-09-09 06:05:00,
2013-09-09 02:08:00,46.5,40.7,30.08,WNW,302,2.0,4.0,80,0.00,,CLR,0.00,0.00,VWS V14.01,2013-09-09 06:08:00,
2013-09-09 02:10:00,47.7,40.8,30.05,WNW,302,1.0,4.0,77,0.00,,CLR,0.00,0.00,VWS V14.01,2013-09-09 06:10:00,
2013-09-09 02:13:00,46.6,40.5,30.07,WNW,302,1.0,2.0,79,0.00,,CLR,0.00,0.00,VWS V14.01,2013-09-09 06:13:00,
2013-09-09 02:15:00,47.6,40.8,30.06,WNW,302,0.0,2.0,77,0.00,,CLR,0.00,0.00,VWS V14.01,2013-09-09 06:15:00,
2013-09-09 02:18:00,46.7,40.5,30.07,WNW,302,2.0,3.0,79,0.00,,CLR,0.00,0.00,VWS V14.01,2013-09-09 06:18:00,
2013-09-09 02:20:00,47.5,41.0,30.05,WNW,302,0.0,1.0,78,0.00,,CLR,0.00,0.00,VWS V14.01,2013-09-09 06:20:00,
2013-09-09 02:23:00,46.6,40.5,30.06,WNW,302,0.0,2.0,79,0.00,,CLR,0.00,0.00,VWS V14.01,2013-09-09 06:23:00,
2013-09-09 02:25:00,47.3,40.8,30.05,WNW,302,2.0,2.0,78,0.00,,CLR,0.00,0.00,VWS V14.01,2013-09-09 06:25:00,
2013-09-09 02:28:00,46.6,40.5,30.06,WNW,302,1.0,2.0,79,0.00,,CLR,0.00,0.00,VWS V14.01,2013-09-09 06:28:00,
2013-09-09 02:30:00,47.2,40.7,30.06,WNW,302,2.0,3.0,78,0.00,,CLR,0.00,0.00,VWS V14.01,2013-09-09 06:30:00,
2013-09-09 02:33:00,46.4,40.2,30.06,WNW,302,1.0,2.0,79,0.00,,CLR,0.00,0.00,VWS V14.01,2013-09-09 06:33:00,
2013-09-09 02:35:00,47.2,41.0,30.06,WNW,302,0.0,3.0,79,0.00,,CLR,0.00,0.00,VWS V14.01,2013-09-09 06:35:00,
2013-09-09 02:38:00,46.2,40.1,30.08,WNW,302,0.0,0.0,79,0.00,,CLR,0.00,0.00,VWS V14.01,2013-09-09 06:38:00,
2013-09-09 02:40:00,47.1,40.6,30.06,WNW,302,2.0,3.0,78,0.00,,CLR,0.00,0.00,VWS V14.01,2013-09-09 06:40:00,
2013-09-09 02:44:00,45.9,40.1,30.08,WNW,302,0.0,1.0,80,0.00,,CLR,0.00,0.00,VWS V14.01,2013-09-09 06:44:00,
2013-09-09 02:45:00,47.1,40.6,30.06,WNW,302,0.0,4.0,78,0.00,,CLR,0.00,0.00,VWS V14.01,2013-09-09 06:45:00,
2013-09-09 02:49:00,45.6,40.1,30.07,WNW,302,1.0,1.0,81,0.00,,CLR,0.00,0.00,VWS V14.01,2013-09-09 06:49:00,
2013-09-09 02:50:00,46.8,40.6,30.05,WNW,302,0.0,2.0,79,0.00,,CLR,0.00,0.00,VWS V14.01,2013-09-09 06:50:00,
2013-09-09 02:54:00,45.4,39.9,30.08,WNW,302,0.0,0.0,81,0.00,,CLR,0.00,0.00,VWS V14.01,2013-09-09 06:54:00,
2013-09-09 02:55:00,46.6,40.5,30.05,WNW,302,0.0,1.0,79,0.00,,CLR,0.00,0.00,VWS V14.01,2013-09-09 06:55:00,
2013-09-09 02:59:00,45.1,39.9,30.07,WNW,302,1.0,2.0,82,0.00,,CLR,0.00,0.00,VWS V14.01,2013-09-09 06:59:00,
2013-09-09 03:00:00,46.4,40.2,30.07,WNW,302,0.0,0.0,79,0.00,,CLR,0.00,0.00,VWS V14.01,2013-09-09 07:00:00,
2013-09-09 03:04:00,44.9,39.8,30.06,WNW,302,0.0,2.0,82,0.00,,CLR,0.00,0.00,VWS V14.01,2013-09-09 07:04:00,
2013-09-09 03:05:00,46.2,40.4,30.07,WNW,302,2.0,3.0,80,0.00,,CLR,0.00,0.00,VWS V14.01,2013-09-09 07:05:00,
2013-09-09 03:09:00,44.7,39.9,30.07,WNW,302,0.0,0.0,83,0.00,,CLR,0.00,0.00,VWS V14.01,2013-09-09 07:09:00,
2013-09-09 03:10:00,46.4,40.6,30.07,WNW,302,3.0,4.0,80,0.00,,CLR,0.00,0.00,VWS V14.01,2013-09-09 07:10:00,
2013-09-09 03:14:00,44.6,39.8,30.07,WNW,302,0.0,0.0,83,0.00,,CLR,0.00,0.00,VWS V14.01,2013-09-09 07:14:00,
2013-09-09 03:15:00,46.6,40.5,30.07,WNW,302,0.0,4.0,79,0.00,,CLR,0.00,0.00,VWS V14.01,2013-09-09 07:15:00,
2013-09-09 03:19:00,44.3,39.8,30.08,WNW,302,0.0,0.0,84,0.00,,CLR,0.00,0.00,VWS V14.01,2013-09-09 07:19:00,
2013-09-09 03:20:00,46.6,40.5,30.08,WNW,302,3.0,4.0,79,0.00,,CLR,0.00,0.00,VWS V14.01,2013-09-09 07:20:00,
2013-09-09 03:24:00,44.1,39.6,30.08,WNW,302,1.0,2.0,84,0.00,,CLR,0.00,0.00,VWS V14.01,2013-09-09 07:24:00,
2013-09-09 03:25:00,46.6,40.5,30.06,WNW,302,2.0,3.0,79,0.00,,CLR,0.00,0.00,VWS V14.01,2013-09-09 07:25:00,
2013-09-09 03:29:00,44.1,39.9,30.09,WNW,302,0.0,0.0,85,0.00,,CLR,0.00,0.00,VWS V14.01,2013-09-09 07:29:00,
2013-09-09 03:30:00,46.6,40.5,30.06,WNW,302,0.0,2.0,79,0.00,,CLR,0.00,0.00,VWS V14.01,2013-09-09 07:30:00,
2013-09-09 03:35:00,43.9,39.7,30.07,WNW,302,1.0,2.0,85,0.00,,CLR,0.00,0.00,VWS V14.01,2013-09-09 07:35:00,
2013-09-09 03:40:00,43.8,39.6,30.08,WNW,302,0.0,1.0,85,0.00,,CLR,0.00,0.00,VWS V14.01,2013-09-09 07:40:00,
2013-09-09 03:45:00,43.7,39.8,30.09,WNW,302,0.0,2.0,86,0.00,,CLR,0.00,0.00,VWS V14.01,2013-09-09 07:45:00,
2013-09-09 03:50:00,43.7,39.8,30.09,WNW,302,2.0,3.0,86,0.00,,CLR,0.00,0.00,VWS V14.01,2013-09-09 07:50:00,
2013-09-09 03:55:00,43.7,39.8,30.09,WNW,302,0.0,3.0,86,0.00,,CLR,0.00,0.00,VWS V14.01,2013-09-09 07:55:00,
2013-09-09 04:00:00,43.6,39.7,30.08,WNW,302,0.0,1.0,86,0.00,,CLR,0.00,0.00,VWS V14.01,2013-09-09 08:00:00,
2013-09-09 04:05:00,43.5,39.6,30.08,WNW,302,0.0,1.0,86,0.00,,CLR,0.00,0.00,VWS V14.01,2013-09-09 08:05:00,
2013-09-09 04:10:00,43.4,39.5,30.10,WNW,302,0.0,2.0,86,0.00,,CLR,0.00,0.00,VWS V14.01,2013-09-09 08:10:00,
2013-09-09 04:15:00,43.3,39.4,30.10,WNW,302,0.0,1.0,86,0.00,,CLR,0.00,0.00,VWS V14.01,2013-09-09 08:15:00,
2013-09-09 04:20:00,43.2,39.3,30.10,WNW,302,0.0,0.0,86,0.00,,CLR,0.00,0.00,VWS V14.01,2013-09-09 08:20:00,
2013-09-09 04:25:00,43.0,39.1,30.09,WNW,302,0.0,0.0,86,0.00,,CLR,0.00,0.00,VWS V14.01,2013-09-09 08:25:00,
2013-09-09 04:30:00,42.9,39.0,30.09,WNW,302,0.0,0.0,86,0.00,,CLR,0.00,0.00,VWS V14.01,2013-09-09 08:30:00,
2013-09-09 04:35:00,42.8,38.9,30.09,WNW,302,0.0,0.0,86,0.00,,CLR,0.00,0.00,VWS V14.01,2013-09-09 08:35:00,
2013-09-09 04:40:00,43.9,39.7,30.07,WNW,302,0.0,2.0,85,0.00,,CLR,0.00,0.00,VWS V14.01,2013-09-09 08:40:00,
2013-09-09 04:41:00,42.6,38.7,30.11,WNW,302,0.0,0.0,86,0.00,,CLR,0.00,0.00,VWS V14.01,2013-09-09 08:41:00,
2013-09-09 04:45:00,43.7,39.5,30.08,WNW,302,1.0,2.0,85,0.00,,CLR,0.00,0.00,VWS V14.01,2013-09-09 08:45:00,
2013-09-09 04:46:00,42.3,38.7,30.11,WNW,302,0.0,0.0,87,0.00,,CLR,0.00,0.00,VWS V14.01,2013-09-09 08:46:00,
2013-09-09 04:50:00,43.7,39.8,30.09,WNW,302,0.0,2.0,86,0.00,,CLR,0.00,0.00,VWS V14.01,2013-09-09 08:50:00,
2013-09-09 04:51:00,42.2,38.6,30.10,WNW,302,0.0,1.0,87,0.00,,CLR,0.00,0.00,VWS V14.01,2013-09-09 08:51:00,
2013-09-09 04:55:00,43.6,39.7,30.09,WNW,302,3.0,3.0,86,0.00,,CLR,0.00,0.00,VWS V14.01,2013-09-09 08:55:00,
2013-09-09 04:56:00,42.2,38.9,30.10,WNW,302,0.0,0.0,88,0.00,,CLR,0.00,0.00,VWS V14.01,2013-09-09 08:56:00,
2013-09-09 05:00:00,43.7,39.8,30.08,WNW,302,0.0,3.0,86,0.00,,CLR,0.00,0.00,VWS V14.01,2013-09-09 09:00:00,
2013-09-09 05:01:00,42.0,38.7,30.12,WNW,302,0.0,0.0,88,0.00,,CLR,0.00,0.00,VWS V14.01,2013-09-09 09:01:00,
2013-09-09 05:05:00,43.6,39.7,30.08,WNW,302,0.0,1.0,86,0.00,,CLR,0.00,0.00,VWS V14.01,2013-09-09 09:05:00,
2013-09-09 05:06:00,42.0,39.0,30.12,WNW,302,0.0,0.0,89,0.00,,CLR,0.00,0.00,VWS V14.01,2013-09-09 09:06:00,
2013-09-09 05:10:00,43.4,39.5,30.08,WNW,302,1.0,2.0,86,0.00,,CLR,0.00,0.00,VWS V14.01,2013-09-09 09:10:00,
2013-09-09 05:11:00,41.9,38.9,30.12,WNW,302,0.0,0.0,89,0.00,,CLR,0.00,0.00,VWS V14.01,2013-09-09 09:11:00,
2013-09-09 05:15:00,43.4,39.5,30.10,WNW,302,0.0,2.0,86,0.00,,CLR,0.00,0.00,VWS V14.01,2013-09-09 09:15:00,
2013-09-09 05:16:00,41.8,38.8,30.13,WNW,302,0.0,0.0,89,0.00,,CLR,0.00,0.00,VWS V14.01,2013-09-09 09:16:00,
2013-09-09 05:20:00,43.3,39.4,30.10,WNW,302,0.0,1.0,86,0.00,,CLR,0.00,0.00,VWS V14.01,2013-09-09 09:20:00,
2013-09-09 05:21:00,41.7,38.7,30.11,WNW,302,0.0,0.0,89,0.00,,CLR,0.00,0.00,VWS V14.01,2013-09-09 09:21:00,
2013-09-09 05:25:00,43.2,39.3,30.10,WNW,302,0.0,0.0,86,0.00,,CLR,0.00,0.00,VWS V14.01,2013-09-09 09:25:00,
2013-09-09 05:26:00,41.6,38.6,30.12,WNW,302,0.0,0.0,89,0.00,,CLR,0.00,0.00,VWS V14.01,2013-09-09 09:26:00,
2013-09-09 05:30:00,43.0,39.1,30.09,WNW,302,0.0,0.0,86,0.00,,CLR,0.00,0.00,VWS V14.01,2013-09-09 09:30:00,
2013-09-09 05:31:00,41.5,38.5,30.12,WNW,302,0.0,0.0,89,0.00,,CLR,0.00,0.00,VWS V14.01,2013-09-09 09:31:00,
2013-09-09 05:35:00,42.9,39.0,30.09,WNW,302,0.0,0.0,86,0.00,,CLR,0.00,0.00,VWS V14.01,2013-09-09 09:35:00,
2013-09-09 05:36:00,41.4,38.7,30.12,WNW,302,0.0,0.0,90,0.00,,CLR,0.00,0.00,VWS V14.01,2013-09-09 09:36:00,
2013-09-09 05:40:00,42.7,38.8,30.11,WNW,302,0.0,0.0,86,0.00,,CLR,0.00,0.00,VWS V14.01,2013-09-09 09:40:00,
2013-09-09 05:41:00,41.3,38.6,30.14,WNW,302,0.0,0.0,90,0.00,,CLR,0.00,0.00,VWS V14.01,2013-09-09 09:41:00,
2013-09-09 05:45:00,42.5,38.6,30.11,WNW,302,0.0,0.0,86,0.00,,CLR,0.00,0.00,VWS V14.01,2013-09-09 09:45:00,
2013-09-09 05:46:00,41.3,38.6,30.14,WNW,302,0.0,1.0,90,0.00,,CLR,0.00,0.00,VWS V14.01,2013-09-09 09:46:00,
2013-09-09 05:50:00,42.3,38.7,30.11,WNW,302,0.0,0.0,87,0.00,,CLR,0.00,0.00,VWS V14.01,2013-09-09 09:50:00,
2013-09-09 05:51:00,41.3,38.6,30.14,WNW,302,0.0,0.0,90,0.00,,CLR,0.00,0.00,VWS V14.01,2013-09-09 09:51:00,
2013-09-09 05:55:00,42.2,38.6,30.10,WNW,302,0.0,1.0,87,0.00,,CLR,0.00,0.00,VWS V14.01,2013-09-09 09:55:00,
2013-09-09 05:56:00,41.3,38.6,30.13,WNW,302,0.0,0.0,90,0.00,,CLR,0.00,0.00,VWS V14.01,2013-09-09 09:56:00,
2013-09-09 06:00:00,42.1,38.8,30.10,WNW,302,0.0,0.0,88,0.00,,CLR,0.00,0.00,VWS V14.01,2013-09-09 10:00:00,
2013-09-09 06:01:00,41.2,38.5,30.13,WNW,302,0.0,0.0,90,0.00,,CLR,0.00,0.00,VWS V14.01,2013-09-09 10:01:00,
2013-09-09 06:05:00,42.0,38.7,30.12,WNW,302,0.0,0.0,88,0.00,,CLR,0.00,0.00,VWS V14.01,2013-09-09 10:05:00,
2013-09-09 06:06:00,41.2,38.8,30.13,WNW,302,0.0,0.0,91,0.00,,CLR,0.00,0.00,VWS V14.01,2013-09-09 10:06:00,
2013-09-09 06:10:00,42.0,39.0,30.12,WNW,302,0.0,0.0,89,0.00,,CLR,0.00,0.00,VWS V14.01,2013-09-09 10:10:00,
2013-09-09 06:12:00,41.1,38.7,30.13,WNW,302,0.0,0.0,91,0.00,,CLR,0.00,0.00,VWS V14.01,2013-09-09 10:12:00,
2013-09-09 06:15:00,41.9,38.9,30.12,WNW,302,0.0,0.0,89,0.00,,CLR,0.00,0.00,VWS V14.01,2013-09-09 10:15:00,
2013-09-09 06:17:00,41.1,38.7,30.15,WNW,302,0.0,0.0,91,0.00,,CLR,0.00,0.00,VWS V14.01,2013-09-09 10:17:00,
2013-09-09 06:20:00,41.8,38.8,30.13,WNW,302,0.0,0.0,89,0.00,,CLR,0.00,0.00,VWS V14.01,2013-09-09 10:20:00,
2013-09-09 06:22:00,41.0,38.6,30.15,WNW,302,0.0,0.0,91,0.00,,CLR,0.00,5.00,VWS V14.01,2013-09-09 10:22:00,
2013-09-09 06:25:00,41.6,38.6,30.11,WNW,302,0.0,0.0,89,0.00,,CLR,0.00,0.00,VWS V14.01,2013-09-09 10:25:00,
2013-09-09 06:27:00,40.9,38.5,30.14,WNW,302,0.0,1.0,91,0.00,,CLR,0.00,7.00,VWS V14.01,2013-09-09 10:27:00,
2013-09-09 06:30:00,41.6,38.6,30.12,WNW,302,0.0,0.0,89,0.00,,CLR,0.00,0.00,VWS V14.01,2013-09-09 10:30:00,
2013-09-09 06:32:00,41.0,38.6,30.15,WNW,302,0.0,2.0,91,0.00,,CLR,0.00,11.00,VWS V14.01,2013-09-09 10:32:00,
2013-09-09 06:35:00,41.5,38.5,30.12,WNW,302,0.0,0.0,89,0.00,,CLR,0.00,0.00,VWS V14.01,2013-09-09 10:35:00,
2013-09-09 06:37:00,40.9,38.5,30.16,WNW,302,0.0,0.0,91,0.00,,CLR,0.00,14.00,VWS V14.01,2013-09-09 10:37:00,
2013-09-09 06:40:00,41.4,38.7,30.12,WNW,302,0.0,0.0,90,0.00,,CLR,0.00,0.00,VWS V14.01,2013-09-09 10:40:00,
2013-09-09 06:42:00,41.2,38.8,30.16,WNW,302,2.0,2.0,91,0.00,,CLR,0.00,33.00,VWS V14.01,2013-09-09 10:42:00,
2013-09-09 06:45:00,41.4,38.7,30.14,WNW,302,0.0,0.0,90,0.00,,CLR,0.00,0.00,VWS V14.01,2013-09-09 10:45:00,
2013-09-09 06:47:00,41.6,39.2,30.16,WNW,302,0.0,0.0,91,0.00,,CLR,0.00,47.00,VWS V14.01,2013-09-09 10:47:00,
2013-09-09 06:50:00,41.4,38.7,30.14,WNW,302,0.0,1.0,90,0.00,,CLR,0.00,0.00,VWS V14.01,2013-09-09 10:50:00,
2013-09-09 06:52:00,42.1,39.7,30.16,WNW,302,0.0,0.0,91,0.00,,CLR,0.00,62.00,VWS V14.01,2013-09-09 10:52:00,
2013-09-09 06:55:00,41.3,38.6,30.14,WNW,302,0.0,0.0,90,0.00,,CLR,0.00,0.00,VWS V14.01,2013-09-09 10:55:00,
2013-09-09 06:57:00,42.6,39.9,30.15,WNW,302,0.0,0.0,90,0.00,,CLR,0.00,47.00,VWS V14.01,2013-09-09 10:57:00,
2013-09-09 07:00:00,41.3,38.6,30.13,WNW,302,0.0,0.0,90,0.00,,CLR,0.00,0.00,VWS V14.01,2013-09-09 11:00:00,
2013-09-09 07:02:00,43.1,40.1,30.15,WNW,302,0.0,1.0,89,0.00,,CLR,0.00,91.00,VWS V14.01,2013-09-09 11:02:00,
2013-09-09 07:05:00,41.2,38.5,30.13,WNW,302,0.0,0.0,90,0.00,,CLR,0.00,0.00,VWS V14.01,2013-09-09 11:05:00,
2013-09-09 07:07:00,43.5,40.5,30.17,WNW,302,0.0,0.0,89,0.00,,CLR,0.00,107.00,VWS V14.01,2013-09-09 11:07:00,
2013-09-09 07:10:00,41.1,38.7,30.13,WNW,302,0.0,0.0,91,0.00,,CLR,0.00,0.00,VWS V14.01,2013-09-09 11:10:00,
2013-09-09 07:12:00,44.1,40.8,30.16,WNW,302,2.0,2.0,88,0.00,,CLR,0.00,125.00,VWS V14.01,2013-09-09 11:12:00,
2013-09-09 07:15:00,41.1,38.7,30.13,WNW,302,0.0,0.0,91,0.00,,CLR,0.00,0.00,VWS V14.01,2013-09-09 11:15:00,
2013-09-09 07:17:00,44.3,40.4,30.16,WNW,301,3.0,4.0,86,0.00,,CLR,0.00,144.00,VWS V14.01,2013-09-09 11:17:00,
2013-09-09 07:20:00,41.1,38.7,30.15,WNW,302,0.0,0.0,91,0.00,,CLR,0.00,0.00,VWS V14.01,2013-09-09 11:20:00,
2013-09-09 07:22:00,44.6,40.4,30.16,WNW,298,1.0,3.0,85,0.00,,CLR,0.00,165.00,VWS V14.01,2013-09-09 11:22:00,
2013-09-09 07:25:00,41.0,38.6,30.15,WNW,302,0.0,0.0,91,0.00,,CLR,0.00,5.00,VWS V14.01,2013-09-09 11:25:00,
2013-09-09 07:27:00,45.0,40.8,30.18,WNW,298,0.0,2.0,85,0.00,,CLR,0.00,181.00,VWS V14.01,2013-09-09 11:27:00,
2013-09-09 07:30:00,40.9,38.5,30.14,WNW,302,0.0,1.0,91,0.00,,CLR,0.00,7.00,VWS V14.01,2013-09-09 11:30:00,
2013-09-09 07:32:00,45.6,41.0,30.18,WNW,298,1.0,2.0,84,0.00,,CLR,0.00,178.00,VWS V14.01,2013-09-09 11:32:00,
2013-09-09 07:35:00,41.0,38.6,30.15,WNW,302,0.0,2.0,91,0.00,,CLR,0.00,11.00,VWS V14.01,2013-09-09 11:35:00,
2013-09-09 07:37:00,45.9,41.0,30.16,WNW,299,2.0,2.0,83,0.00,,CLR,0.00,197.00,VWS V14.01,2013-09-09 11:37:00,
2013-09-09 07:40:00,40.9,38.5,30.15,WNW,302,0.0,0.0,91,0.00,,CLR,0.00,14.00,VWS V14.01,2013-09-09 11:40:00,
2013-09-09 07:43:00,46.2,41.3,30.17,WNW,298,3.0,3.0,83,0.00,,CLR,0.00,230.00,VWS V14.01,2013-09-09 11:43:00,
2013-09-09 07:45:00,41.2,38.8,30.16,WNW,302,1.0,1.0,91,0.00,,CLR,0.00,33.00,VWS V14.01,2013-09-09 11:45:00,
2013-09-09 07:48:00,46.5,41.3,30.18,WNW,299,3.0,3.0,82,0.00,,CLR,0.00,227.00,VWS V14.01,2013-09-09 11:48:00,
2013-09-09 07:50:00,41.5,39.1,30.16,WNW,302,0.0,2.0,91,0.00,,CLR,0.00,47.00,VWS V14.01,2013-09-09 11:50:00,
2013-09-09 07:53:00,46.7,41.2,30.18,WNW,299,2.0,3.0,81,0.00,,CLR,0.00,250.00,VWS V14.01,2013-09-09 11:53:00,
2013-09-09 07:55:00,42.1,39.7,30.16,WNW,302,0.0,0.0,91,0.00,,CLR,0.00,62.00,VWS V14.01,2013-09-09 11:55:00,
2013-09-09 07:58:00,47.1,41.6,30.18,WNW,298,2.0,2.0,81,0.00,,CLR,0.00,251.00,VWS V14.01,2013-09-09 11:58:00,
2013-09-09 08:00:00,42.6,39.9,30.15,WNW,302,0.0,0.0,90,0.00,,CLR,0.00,63.00,VWS V14.01,2013-09-09 12:00:00,
2013-09-09 08:03:00,47.7,41.8,30.17,WNW,298,1.0,2.0,80,0.00,,CLR,0.00,279.00,VWS V14.01,2013-09-09 12:03:00,
2013-09-09 08:05:00,43.1,40.1,30.15,WNW,302,0.0,1.0,89,0.00,,CLR,0.00,90.00,VWS V14.01,2013-09-09 12:05:00,
2013-09-09 08:08:00,48.4,41.9,30.17,WNW,298,2.0,3.0,78,0.00,,CLR,0.00,306.00,VWS V14.01,2013-09-09 12:08:00,
2013-09-09 08:10:00,43.4,40.4,30.17,WNW,302,0.0,1.0,89,0.00,,CLR,0.00,102.00,VWS V14.01,2013-09-09 12:10:00,
2013-09-09 08:13:00,48.8,41.9,30.18,WNW,298,0.0,1.0,77,0.00,,CLR,0.00,318.00,VWS V14.01,2013-09-09 12:13:00,
2013-09-09 08:15:00,44.1,40.8,30.16,WNW,302,0.0,1.0,88,0.00,,CLR,0.00,121.00,VWS V14.01,2013-09-09 12:15:00,
2013-09-09 08:18:00,49.4,42.5,30.18,WNW,298,0.0,1.0,77,0.00,,CLR,0.00,318.00,VWS V14.01,2013-09-09 12:18:00,
2013-09-09 08:20:00,44.3,40.4,30.16,WNW,302,4.0,5.0,86,0.00,,CLR,0.00,141.00,VWS V14.01,2013-09-09 12:20:00,
2013-09-09 08:23:00,50.0,42.4,30.18,WNW,298,1.0,3.0,75,0.00,,CLR,0.00,353.00,VWS V14.01,2013-09-09 12:23:00,
2013-09-09 08:25:00,44.6,40.4,30.16,WNW,298,2.0,5.0,85,0.00,,CLR,0.00,162.00,VWS V14.01,2013-09-09 12:25:00,
2013-09-09 08:28:00,50.5,42.5,30.18,WNW,298,2.0,3.0,74,0.00,,CLR,0.00,369.00,VWS V14.01,2013-09-09 12:28:00,
2013-09-09 08:30:00,45.0,40.5,30.18,WNW,298,1.0,3.0,84,0.00,,CLR,0.00,181.00,VWS V14.01,2013-09-09 12:30:00,
2013-09-09 08:33:00,50.9,42.9,30.17,WNW,298,0.0,3.0,74,0.00,,CLR,0.00,392.00,VWS V14.01,2013-09-09 12:33:00,
2013-09-09 08:35:00,45.5,41.3,30.18,WNW,299,1.0,2.0,85,0.00,,CLR,0.00,178.00,VWS V14.01,2013-09-09 12:35:00,
2013-09-09 08:38:00,51.6,43.2,30.18,WNW,298,2.0,3.0,73,0.00,,CLR,0.00,404.00,VWS V14.01,2013-09-09 12:38:00,
2013-09-09 08:40:00,45.9,41.0,30.16,WNW,298,0.0,3.0,83,0.00,,CLR,0.00,197.00,VWS V14.01,2013-09-09 12:40:00,
2013-09-09 08:43:00,52.1,43.4,30.18,WNW,298,1.0,3.0,72,0.00,,CLR,0.00,418.00,VWS V14.01,2013-09-09 12:43:00,
2013-09-09 08:45:00,46.2,41.3,30.17,WNW,298,3.0,3.0,83,0.00,,CLR,0.00,230.00,VWS V14.01,2013-09-09 12:45:00,
2013-09-09 08:48:00,52.6,43.5,30.18,WNW,289,5.0,5.0,71,0.00,,CLR,0.00,390.00,VWS V14.01,2013-09-09 12:48:00,
2013-09-09 08:50:00,46.4,41.2,30.18,WNW,298,3.0,5.0,82,0.00,,CLR,0.00,213.00,VWS V14.01,2013-09-09 12:50:00,
2013-09-09 08:53:00,53.0,43.9,30.19,West,265,1.0,4.0,71,0.00,,CLR,0.00,325.00,VWS V14.01,2013-09-09 12:53:00,
2013-09-09 08:55:00,46.6,41.1,30.18,WNW,299,2.0,4.0,81,0.00,,CLR,0.00,246.00,VWS V14.01,2013-09-09 12:55:00,
2013-09-09 08:58:00,53.4,44.2,30.18,NW,306,0.0,3.0,71,0.00,,CLR,0.00,443.00,VWS V14.01,2013-09-09 12:58:00,
2013-09-09 09:00:00,47.0,41.2,30.18,WNW,298,1.0,3.0,80,0.00,,CLR,0.00,246.00,VWS V14.01,2013-09-09 13:00:00,
2013-09-09 09:03:00,54.0,43.7,30.19,WNW,298,0.0,3.0,68,0.00,,CLR,0.00,415.00,VWS V14.01,2013-09-09 13:03:00,
2013-09-09 09:05:00,47.5,41.7,30.17,WNW,298,0.0,2.0,80,0.00,,CLR,0.00,274.00,VWS V14.01,2013-09-09 13:05:00,
2013-09-09 09:08:00,54.5,44.2,30.19,West,270,2.0,5.0,68,0.00,,CLR,0.00,483.00,VWS V14.01,2013-09-09 13:08:00,
2013-09-09 09:10:00,48.2,42.0,30.17,WNW,298,0.0,2.0,79,0.00,,CLR,0.00,299.00,VWS V14.01,2013-09-09 13:10:00,
2013-09-09 09:13:00,55.0,44.7,30.19,WNW,286,3.0,3.0,68,0.00,,CLR,0.00,466.00,VWS V14.01,2013-09-09 13:13:00,
2013-09-09 09:15:00,48.7,41.5,30.18,WNW,298,0.0,4.0,76,0.00,,CLR,0.00,315.00,VWS V14.01,2013-09-09 13:15:00,
2013-09-09 09:19:00,55.6,44.4,30.19,WNW,284,1.0,4.0,66,0.00,,CLR,0.00,462.00,VWS V14.01,2013-09-09 13:19:00,
2013-09-09 09:20:00,49.2,42.3,30.18,WNW,299,0.0,3.0,77,0.00,,CLR,0.00,327.00,VWS V14.01,2013-09-09 13:20:00,
2013-09-09 09:24:00,55.9,43.9,30.19,NW,310,2.0,4.0,64,0.00,,CLR,0.00,443.00,VWS V14.01,2013-09-09 13:24:00,
2013-09-09 09:25:00,49.8,42.5,30.18,WNW,298,2.0,4.0,76,0.00,,CLR,0.00,345.00,VWS V14.01,2013-09-09 13:25:00,
2013-09-09 09:29:00,56.4,44.4,30.19,WNW,291,4.0,5.0,64,0.00,,CLR,0.00,461.00,VWS V14.01,2013-09-09 13:29:00,
2013-09-09 09:30:00,50.4,42.4,30.18,WNW,299,1.0,3.0,74,0.00,,CLR,0.00,367.00,VWS V14.01,2013-09-09 13:30:00,
2013-09-09 09:34:00,56.8,43.9,30.19,WSW,257,4.0,6.0,62,0.00,,CLR,0.00,550.00,VWS V14.01,2013-09-09 13:34:00,
2013-09-09 09:35:00,50.8,42.8,30.17,WNW,298,2.0,4.0,74,0.00,,CLR,0.00,388.00,VWS V14.01,2013-09-09 13:35:00,
2013-09-09 09:39:00,57.1,43.4,30.19,NW,306,3.0,4.0,60,0.00,,CLR,0.00,545.00,VWS V14.01,2013-09-09 13:39:00,
2013-09-09 09:40:00,51.4,43.0,30.17,WNW,298,2.0,3.0,73,0.00,,CLR,0.00,401.00,VWS V14.01,2013-09-09 13:40:00,
2013-09-09 09:44:00,57.4,42.8,30.18,NW,321,3.0,5.0,58,0.00,,CLR,0.00,570.00,VWS V14.01,2013-09-09 13:44:00,
2013-09-09 09:45:00,52.0,43.3,30.18,WNW,298,2.0,5.0,72,0.00,,CLR,0.00,424.00,VWS V14.01,2013-09-09 13:45:00,
2013-09-09 09:49:00,57.9,42.8,30.18,SW,235,2.0,5.0,57,0.00,,CLR,0.00,587.00,VWS V14.01,2013-09-09 13:49:00,
2013-09-09 09:50:00,52.5,43.4,30.18,WNW,295,4.0,5.0,71,0.00,,CLR,0.00,369.00,VWS V14.01,2013-09-09 13:50:00,
2013-09-09 09:54:00,58.4,42.8,30.18,NW,311,2.0,4.0,56,0.00,,CLR,0.00,619.00,VWS V14.01,2013-09-09 13:54:00,
2013-09-09 09:55:00,52.8,43.3,30.19,West,275,4.0,5.0,70,0.00,,CLR,0.00,348.00,VWS V14.01,2013-09-09 13:55:00,
2013-09-09 09:59:00,58.9,41.8,30.18,West,270,0.0,6.0,53,0.00,,CLR,0.00,570.00,VWS V14.01,2013-09-09 13:59:00,
2013-09-09 10:00:00,53.3,44.2,30.18,NW,306,2.0,4.0,71,0.00,,CLR,0.00,422.00,VWS V14.01,2013-09-09 14:00:00,
2013-09-09 10:04:00,59.0,41.4,30.18,West,261,1.0,7.0,52,0.00,,CLR,0.00,584.00,VWS V14.01,2013-09-09 14:04:00,
2013-09-09 10:05:00,53.9,44.3,30.19,WNW,298,1.0,4.0,70,0.00,,CLR,0.00,380.00,VWS V14.01,2013-09-09 14:05:00,
2013-09-09 10:09:00,59.3,42.2,30.18,SSE,157,4.0,6.0,53,0.00,,CLR,0.00,615.00,VWS V14.01,2013-09-09 14:09:00,
2013-09-09 10:10:00,54.3,44.4,30.19,West,270,4.0,4.0,69,0.00,,CLR,0.00,478.00,VWS V14.01,2013-09-09 14:10:00,
2013-09-09 10:14:00,59.5,42.4,30.18,WSW,253,1.0,5.0,53,0.00,,CLR,0.00,524.00,VWS V14.01,2013-09-09 14:14:00,
2013-09-09 10:15:00,54.8,44.5,30.19,WNW,285,1.0,5.0,68,0.00,,CLR,0.00,482.00,VWS V14.01,2013-09-09 14:15:00,
2013-09-09 10:19:00,60.1,41.4,30.17,WNW,299,5.0,8.0,50,0.00,,CLR,0.00,601.00,VWS V14.01,2013-09-09 14:19:00,
2013-09-09 10:20:00,55.3,44.2,30.19,WNW,285,3.0,4.0,66,0.00,,CLR,0.00,510.00,VWS V14.01,2013-09-09 14:20:00,
2013-09-09 10:24:00,60.4,41.2,30.17,SSW,202,5.0,5.0,49,0.00,,CLR,0.00,504.00,VWS V14.01,2013-09-09 14:24:00,
2013-09-09 10:25:00,55.8,44.2,30.19,NW,310,2.0,5.0,65,0.00,,CLR,0.00,445.00,VWS V14.01,2013-09-09 14:25:00,
2013-09-09 10:29:00,60.2,40.5,30.17,SSW,200,4.0,8.0,48,0.00,,CLR,0.00,628.00,VWS V14.01,2013-09-09 14:29:00,
2013-09-09 10:30:00,56.2,43.8,30.19,NW,310,4.0,4.0,63,0.00,,CLR,0.00,476.00,VWS V14.01,2013-09-09 14:30:00,
2013-09-09 10:34:00,60.5,41.8,30.17,WSW,240,4.0,8.0,50,0.00,,CLR,0.00,710.00,VWS V14.01,2013-09-09 14:34:00,
2013-09-09 10:35:00,56.6,44.2,30.19,WNW,292,4.0,5.0,63,0.00,,CLR,0.00,554.00,VWS V14.01,2013-09-09 14:35:00,
2013-09-09 10:39:00,60.6,41.4,30.17,SSW,194,3.0,4.0,49,0.00,,CLR,0.00,563.00,VWS V14.01,2013-09-09 14:39:00,
2013-09-09 10:40:00,57.0,42.8,30.19,West,263,4.0,7.0,59,0.00,,CLR,0.00,548.00,VWS V14.01,2013-09-09 14:40:00,
2013-09-09 10:44:00,61.0,40.7,30.17,SSE,164,7.0,8.0,47,0.00,,CLR,0.00,747.00,VWS V14.01,2013-09-09 14:44:00,
2013-09-09 10:45:00,57.3,42.7,30.18,NW,304,3.0,4.0,58,0.00,,CLR,0.00,563.00,VWS V14.01,2013-09-09 14:45:00,
2013-09-09 10:50:00,61.0,40.1,30.16,SW,215,2.0,7.0,46,0.00,,CLR,0.00,724.00,VWS V14.01,2013-09-09 14:50:00,
2013-09-09 10:55:00,61.1,40.2,30.17,West,269,6.0,8.0,46,0.00,,CLR,0.00,696.00,VWS V14.01,2013-09-09 14:55:00,
2013-09-09 11:00:00,61.4,40.5,30.16,West,269,7.0,8.0,46,0.00,,CLR,0.00,580.00,VWS V14.01,2013-09-09 15:00:00,
2013-09-09 11:05:00,61.0,40.7,30.16,West,260,3.0,3.0,47,0.00,,CLR,0.00,492.00,VWS V14.01,2013-09-09 15:05:00,
2013-09-09 11:10:00,60.9,41.1,30.16,WSW,258,3.0,8.0,48,0.00,,CLR,0.00,422.00,VWS V14.01,2013-09-09 15:10:00,
2013-09-09 11:15:00,60.9,42.2,30.16,SW,220,4.0,7.0,50,0.00,,CLR,0.00,446.00,VWS V14.01,2013-09-09 15:15:00,
2013-09-09 11:20:00,61.4,42.1,30.16,SSW,207,2.0,6.0,49,0.00,,CLR,0.00,828.00,VWS V14.01,2013-09-09 15:20:00,
2013-09-09 11:25:00,62.2,42.3,30.16,SW,216,4.0,7.0,48,0.00,,CLR,0.00,598.00,VWS V14.01,2013-09-09 15:25:00,
2013-09-09 11:30:00,62.3,42.4,30.16,SW,217,4.0,6.0,48,0.00,,CLR,0.00,380.00,VWS V14.01,2013-09-09 15:30:00,
2013-09-09 11:35:00,62.3,42.4,30.16,WSW,238,7.0,9.0,48,0.00,,CLR,0.00,466.00,VWS V14.01,2013-09-09 15:35:00,
2013-09-09 11:40:00,61.8,43.0,30.15,NW,315,5.0,9.0,50,0.00,,CLR,0.00,468.00,VWS V14.01,2013-09-09 15:40:00,
2013-09-09 11:45:00,62.1,42.2,30.15,West,263,4.0,9.0,48,0.00,,CLR,0.00,629.00,VWS V14.01,2013-09-09 15:45:00,
2013-09-09 11:50:00,62.4,42.5,30.15,WSW,244,6.0,9.0,48,0.00,,CLR,0.00,626.00,VWS V14.01,2013-09-09 15:50:00,
2013-09-09 11:55:00,62.8,42.3,30.15,West,259,4.0,5.0,47,0.00,,CLR,0.00,733.00,VWS V14.01,2013-09-09 15:55:00,
2013-09-09 12:00:00,62.9,41.8,30.14,SW,236,2.0,9.0,46,0.00,,CLR,0.00,496.00,VWS V14.01,2013-09-09 16:00:00,
2013-09-09 12:05:00,63.4,42.8,30.14,WSW,237,2.0,8.0,47,0.00,,CLR,0.00,724.00,VWS V14.01,2013-09-09 16:05:00,
2013-09-09 12:10:00,63.5,41.8,30.14,WSW,244,0.0,9.0,45,0.00,,CLR,0.00,647.00,VWS V14.01,2013-09-09 16:10:00,
2013-09-09 12:15:00,63.7,42.5,30.14,SW,234,2.0,8.0,46,0.00,,CLR,0.00,622.00,VWS V14.01,2013-09-09 16:15:00,
2013-09-09 12:20:00,60.9,40.6,30.16,South,180,2.0,9.0,47,0.00,,CLR,0.00,874.00,VWS V14.01,2013-09-09 16:20:00,
2013-09-09 12:21:00,64.3,43.1,30.14,West,263,8.0,10.0,46,0.00,,CLR,0.00,773.00,VWS V14.01,2013-09-09 16:21:00,
2013-09-09 12:25:00,61.8,41.9,30.16,West,261,2.0,7.0,48,0.00,,CLR,0.00,577.00,VWS V14.01,2013-09-09 16:25:00,
2013-09-09 12:26:00,63.7,41.4,30.14,West,272,3.0,9.0,44,0.00,,CLR,0.00,659.00,VWS V14.01,2013-09-09 16:26:00,
2013-09-09 12:30:00,62.2,41.7,30.16,WSW,239,5.0,9.0,47,0.00,,CLR,0.00,652.00,VWS V14.01,2013-09-09 16:30:00,
2013-09-09 12:31:00,63.7,42.0,30.13,SSW,208,2.0,9.0,45,0.00,,CLR,0.00,689.00,VWS V14.01,2013-09-09 16:31:00,
2013-09-09 12:35:00,62.3,41.8,30.16,SSW,202,2.0,6.0,47,0.00,,CLR,0.00,582.00,VWS V14.01,2013-09-09 16:35:00,
2013-09-09 12:36:00,64.1,42.3,30.13,NW,306,3.0,9.0,45,0.00,,CLR,0.00,712.00,VWS V14.01,2013-09-09 16:36:00,
2013-09-09 12:40:00,62.2,42.3,30.16,WSW,243,7.0,9.0,48,0.00,,CLR,0.00,401.00,VWS V14.01,2013-09-09 16:40:00,
2013-09-09 12:41:00,64.4,42.6,30.13,SSW,195,4.0,10.0,45,0.00,,CLR,0.00,780.00,VWS V14.01,2013-09-09 16:41:00,
2013-09-09 12:45:00,61.9,43.6,30.15,WSW,255,5.0,9.0,51,0.00,,CLR,0.00,612.00,VWS V14.01,2013-09-09 16:45:00,
2013-09-09 12:46:00,64.8,43.0,30.13,SW,220,7.0,10.0,45,0.00,,CLR,0.00,728.00,VWS V14.01,2013-09-09 16:46:00,
2013-09-09 12:50:00,62.3,42.9,30.15,SSW,193,5.0,9.0,49,0.00,,CLR,0.00,622.00,VWS V14.01,2013-09-09 16:50:00,
2013-09-09 12:51:00,64.8,42.4,30.13,South,170,10.0,13.0,44,0.00,,CLR,0.00,780.00,VWS V14.01,2013-09-09 16:51:00,
2013-09-09 12:55:00,62.5,42.6,30.15,SW,225,5.0,9.0,48,0.00,,CLR,0.00,708.00,VWS V14.01,2013-09-09 16:55:00,
2013-09-09 12:56:00,65.2,42.2,30.13,SW,229,5.0,14.0,43,0.00,,CLR,0.00,714.00,VWS V14.01,2013-09-09 16:56:00,
2013-09-09 13:00:00,62.8,42.3,30.15,SW,219,1.0,6.0,47,0.00,,CLR,0.00,722.00,VWS V14.01,2013-09-09 17:00:00,
2013-09-09 13:01:00,65.0,42.6,30.13,WSW,254,5.0,12.0,44,0.00,,CLR,0.00,770.00,VWS V14.01,2013-09-09 17:01:00,
2013-09-09 13:05:00,63.0,42.5,30.14,SSW,205,3.0,9.0,47,0.00,,CLR,0.00,573.00,VWS V14.01,2013-09-09 17:05:00,
2013-09-09 13:06:00,65.4,41.7,30.13,WSW,244,4.0,11.0,42,0.00,,CLR,0.00,722.00,VWS V14.01,2013-09-09 17:06:00,
2013-09-09 13:10:00,63.6,42.5,30.14,WSW,249,4.0,8.0,46,0.00,,CLR,0.00,640.00,VWS V14.01,2013-09-09 17:10:00,
2013-09-09 13:11:00,65.5,41.8,30.13,SSW,192,1.0,13.0,42,0.00,,CLR,0.00,598.00,VWS V14.01,2013-09-09 17:11:00,
2013-09-09 13:15:00,63.5,42.4,30.14,West,269,4.0,9.0,46,0.00,,CLR,0.00,719.00,VWS V14.01,2013-09-09 17:15:00,
2013-09-09 13:16:00,65.7,42.0,30.12,SW,235,4.0,12.0,42,0.00,,CLR,0.00,232.00,VWS V14.01,2013-09-09 17:16:00,
2013-09-09 13:20:00,63.7,43.1,30.14,SW,220,1.0,8.0,47,0.00,,CLR,0.00,622.00,VWS V14.01,2013-09-09 17:20:00,
2013-09-09 13:21:00,66.0,42.9,30.13,SW,217,1.0,12.0,43,0.00,,CLR,0.00,84.00,VWS V14.01,2013-09-09 17:21:00,
2013-09-09 13:25:00,64.2,41.8,30.14,WSW,258,4.0,10.0,44,0.00,,CLR,0.00,603.00,VWS V14.01,2013-09-09 17:25:00,
2013-09-09 13:27:00,66.6,42.8,30.12,WSW,238,0.0,10.0,42,0.00,,CLR,0.00,98.00,VWS V14.01,2013-09-09 17:27:00,
2013-09-09 13:30:00,63.7,42.0,30.13,West,277,3.0,9.0,45,0.00,,CLR,0.00,647.00,VWS V14.01,2013-09-09 17:30:00,
2013-09-09 13:32:00,66.9,43.7,30.12,SW,234,8.0,9.0,43,0.00,,CLR,0.00,130.00,VWS V14.01,2013-09-09 17:32:00,
2013-09-09 13:35:00,63.7,42.5,30.13,SSW,193,7.0,9.0,46,0.00,,CLR,0.00,698.00,VWS V14.01,2013-09-09 17:35:00,
2013-09-09 13:37:00,66.9,42.5,30.11,SW,222,7.0,10.0,41,0.00,,CLR,0.00,193.00,VWS V14.01,2013-09-09 17:37:00,
2013-09-09 13:40:00,64.1,42.3,30.13,West,261,9.0,10.0,45,0.00,,CLR,0.00,721.00,VWS V14.01,2013-09-09 17:40:00,
2013-09-09 13:42:00,66.5,42.7,30.12,SSE,162,7.0,12.0,42,0.00,,CLR,0.00,253.00,VWS V14.01,2013-09-09 17:42:00,
2013-09-09 13:45:00,64.5,42.7,30.13,SSE,165,6.0,10.0,45,0.00,,CLR,0.00,763.00,VWS V14.01,2013-09-09 17:45:00,
2013-09-09 13:47:00,66.1,42.4,30.11,South,190,6.0,12.0,42,0.00,,CLR,0.00,285.00,VWS V14.01,2013-09-09 17:47:00,
2013-09-09 13:50:00,64.9,43.1,30.13,SW,223,7.0,10.0,45,0.00,,CLR,0.00,737.00,VWS V14.01,2013-09-09 17:50:00,
2013-09-09 13:52:00,65.7,42.0,30.11,SSW,212,6.0,10.0,42,0.00,,CLR,0.00,292.00,VWS V14.01,2013-09-09 17:52:00,
2013-09-09 13:55:00,64.8,42.4,30.13,WSW,238,13.0,14.0,44,0.00,,CLR,0.00,798.00,VWS V14.01,2013-09-09 17:55:00,
2013-09-09 13:57:00,65.6,42.5,30.11,WSW,253,4.0,11.0,43,0.00,,CLR,0.00,308.00,VWS V14.01,2013-09-09 17:57:00,
2013-09-09 14:00:00,65.2,42.2,30.13,West,261,5.0,14.0,43,0.00,,CLR,0.00,633.00,VWS V14.01,2013-09-09 18:00:00,
2013-09-09 14:02:00,65.8,42.1,30.11,SW,233,7.0,8.0,42,0.00,,CLR,0.00,316.00,VWS V14.01,2013-09-09 18:02:00,
2013-09-09 14:05:00,65.1,42.7,30.13,SW,221,5.0,12.0,44,0.00,,CLR,0.00,770.00,VWS V14.01,2013-09-09 18:05:00,
2013-09-09 14:07:00,65.8,43.3,30.11,SSW,203,8.0,8.0,44,0.00,,CLR,0.00,318.00,VWS V14.01,2013-09-09 18:07:00,
2013-09-09 14:10:00,65.4,41.7,30.13,WSW,244,2.0,11.0,42,0.00,,CLR,0.00,668.00,VWS V14.01,2013-09-09 18:10:00,
2013-09-09 14:12:00,65.9,43.4,30.11,SSW,209,6.0,6.0,44,0.00,,CLR,0.00,306.00,VWS V14.01,2013-09-09 18:12:00,
2013-09-09 14:15:00,65.5,41.8,30.13,WSW,254,2.0,13.0,42,0.00,,CLR,0.00,543.00,VWS V14.01,2013-09-09 18:15:00,
2013-09-09 14:17:00,65.8,43.9,30.11,South,190,7.0,8.0,45,0.00,,CLR,0.00,308.00,VWS V14.01,2013-09-09 18:17:00,
2013-09-09 14:20:00,65.7,42.0,30.12,WSW,244,6.0,12.0,42,0.00,,CLR,0.00,232.00,VWS V14.01,2013-09-09 18:20:00,
2013-09-09 14:22:00,65.9,44.0,30.11,SSW,207,6.0,6.0,45,0.00,,CLR,0.00,329.00,VWS V14.01,2013-09-09 18:22:00,
2013-09-09 14:25:00,66.0,42.9,30.13,SW,217,1.0,12.0,43,0.00,,CLR,0.00,84.00,VWS V14.01,2013-09-09 18:25:00,
2013-09-09 14:27:00,66.5,44.5,30.10,SSW,213,6.0,7.0,45,0.00,,CLR,0.00,336.00,VWS V14.01,2013-09-09 18:27:00,
2013-09-09 14:30:00,66.6,42.8,30.12,WSW,238,1.0,10.0,42,0.00,,CLR,0.00,98.00,VWS V14.01,2013-09-09 18:30:00,
2013-09-09 14:32:00,66.8,45.4,30.10,WSW,239,6.0,8.0,46,0.00,,CLR,0.00,388.00,VWS V14.01,2013-09-09 18:32:00,
2013-09-09 14:35:00,66.9,43.7,30.12,SW,234,8.0,9.0,43,0.00,,CLR,0.00,130.00,VWS V14.01,2013-09-09 18:35:00,
2013-09-09 14:37:00,67.3,45.2,30.10,WSW,240,8.0,11.0,45,0.00,,CLR,0.00,473.00,VWS V14.01,2013-09-09 18:37:00,
2013-09-09 14:40:00,66.9,42.5,30.11,SW,222,7.0,10.0,41,0.00,,CLR,0.00,193.00,VWS V14.01,2013-09-09 18:40:00,
2013-09-09 14:42:00,67.1,45.1,30.10,West,261,3.0,10.0,45,0.00,,CLR,0.00,320.00,VWS V14.01,2013-09-09 18:42:00,
2013-09-09 14:45:00,66.5,42.7,30.12,SSE,162,7.0,12.0,42,0.00,,CLR,0.00,253.00,VWS V14.01,2013-09-09 18:45:00,
2013-09-09 14:48:00,66.9,44.9,30.10,WSW,245,9.0,10.0,45,0.00,,CLR,0.00,281.00,VWS V14.01,2013-09-09 18:48:00,
2013-09-09 14:50:00,66.1,42.4,30.11,South,190,6.0,12.0,42,0.00,,CLR,0.00,285.00,VWS V14.01,2013-09-09 18:50:00,
2013-09-09 14:53:00,66.6,44.6,30.10,WSW,250,10.0,11.0,45,0.00,,CLR,0.00,362.00,VWS V14.01,2013-09-09 18:53:00,
2013-09-09 14:55:00,65.7,42.0,30.11,SSW,212,6.0,10.0,42,0.00,,CLR,0.00,292.00,VWS V14.01,2013-09-09 18:55:00,
2013-09-09 14:58:00,66.7,45.3,30.10,SW,220,3.0,8.0,46,0.00,,CLR,0.00,360.00,VWS V14.01,2013-09-09 18:58:00,
2013-09-09 15:00:00,65.6,42.5,30.11,WSW,253,4.0,11.0,43,0.00,,CLR,0.00,308.00,VWS V14.01,2013-09-09 19:00:00,
2013-09-09 15:03:00,67.0,45.0,30.10,West,265,6.0,10.0,45,0.00,,CLR,0.00,313.00,VWS V14.01,2013-09-09 19:03:00,
2013-09-09 15:05:00,65.8,42.1,30.11,West,266,8.0,10.0,42,0.00,,CLR,0.00,316.00,VWS V14.01,2013-09-09 19:05:00,
2013-09-09 15:08:00,67.0,45.6,30.10,SSW,213,4.0,10.0,46,0.00,,CLR,0.00,285.00,VWS V14.01,2013-09-09 19:08:00,
2013-09-09 15:10:00,65.8,43.3,30.11,South,188,5.0,8.0,44,0.00,,CLR,0.00,318.00,VWS V14.01,2013-09-09 19:10:00,
2013-09-09 15:13:00,67.0,45.0,30.10,SSW,202,9.0,9.0,45,0.00,,CLR,0.00,309.00,VWS V14.01,2013-09-09 19:13:00,
2013-09-09 15:15:00,65.8,43.3,30.11,WSW,238,6.0,10.0,44,0.00,,CLR,0.00,306.00,VWS V14.01,2013-09-09 19:15:00,
2013-09-09 15:18:00,66.8,44.2,30.10,SSW,204,5.0,14.0,44,0.00,,CLR,0.00,388.00,VWS V14.01,2013-09-09 19:18:00,
2013-09-09 15:20:00,65.9,44.0,30.11,South,169,6.0,8.0,45,0.00,,CLR,0.00,308.00,VWS V14.01,2013-09-09 19:20:00,
2013-09-09 15:23:00,67.0,45.0,30.11,SSW,198,6.0,9.0,45,0.00,,CLR,0.00,448.00,VWS V14.01,2013-09-09 19:23:00,
2013-09-09 15:25:00,65.9,44.0,30.11,SW,226,5.0,10.0,45,0.00,,CLR,0.00,329.00,VWS V14.01,2013-09-09 19:25:00,
2013-09-09 15:28:00,67.1,45.1,30.11,WSW,250,5.0,8.0,45,0.00,,CLR,0.00,476.00,VWS V14.01,2013-09-09 19:28:00,
2013-09-09 15:30:00,66.4,44.4,30.10,WSW,241,7.0,7.0,45,0.00,,CLR,0.00,336.00,VWS V14.01,2013-09-09 19:30:00,
2013-09-09 15:33:00,67.5,44.2,30.10,SW,215,7.0,11.0,43,0.00,,CLR,0.00,369.00,VWS V14.01,2013-09-09 19:33:00,
2013-09-09 15:35:00,66.7,44.1,30.11,SW,232,6.0,10.0,44,0.00,,CLR,0.00,394.00,VWS V14.01,2013-09-09 19:35:00,
2013-09-09 15:39:00,67.0,44.4,30.10,WSW,239,11.0,11.0,44,0.00,,CLR,0.00,301.00,VWS V14.01,2013-09-09 19:39:00,
2013-09-09 15:40:00,67.2,44.6,30.10,WSW,247,8.0,8.0,44,0.00,,CLR,0.00,473.00,VWS V14.01,2013-09-09 19:40:00,
2013-09-09 15:44:00,66.9,45.5,30.11,SW,222,8.0,10.0,46,0.00,,CLR,0.00,262.00,VWS V14.01,2013-09-09 19:44:00,
2013-09-09 15:45:00,67.2,45.2,30.10,SW,225,4.0,12.0,45,0.00,,CLR,0.00,332.00,VWS V14.01,2013-09-09 19:45:00,
2013-09-09 15:49:00,66.7,44.7,30.11,SW,227,6.0,10.0,45,0.00,,CLR,0.00,348.00,VWS V14.01,2013-09-09 19:49:00,
2013-09-09 15:50:00,66.9,44.9,30.10,WSW,249,6.0,11.0,45,0.00,,CLR,0.00,279.00,VWS V14.01,2013-09-09 19:50:00,
2013-09-09 15:54:00,66.9,44.9,30.11,WSW,242,3.0,11.0,45,0.00,,CLR,0.00,292.00,VWS V14.01,2013-09-09 19:54:00,
2013-09-09 15:55:00,66.6,44.6,30.10,West,260,5.0,12.0,45,0.00,,CLR,0.00,381.00,VWS V14.01,2013-09-09 19:55:00,
2013-09-09 15:59:00,66.9,44.9,30.11,WSW,245,4.0,6.0,45,0.00,,CLR,0.00,318.00,VWS V14.01,2013-09-09 19:59:00,
2013-09-09 16:00:00,66.6,44.6,30.10,SSW,208,5.0,11.0,45,0.00,,CLR,0.00,359.00,VWS V14.01,2013-09-09 20:00:00,
2013-09-09 16:04:00,67.2,44.6,30.10,SSE,165,6.0,10.0,44,0.00,,CLR,0.00,330.00,VWS V14.01,2013-09-09 20:04:00,
2013-09-09 16:05:00,67.0,45.6,30.10,SW,228,3.0,9.0,46,0.00,,CLR,0.00,345.00,VWS V14.01,2013-09-09 20:05:00,
2013-09-09 16:09:00,67.0,45.0,30.10,SSW,210,3.0,10.0,45,0.00,,CLR,0.00,285.00,VWS V14.01,2013-09-09 20:09:00,
2013-09-09 16:10:00,67.0,46.1,30.10,West,275,6.0,10.0,47,0.00,,CLR,0.00,336.00,VWS V14.01,2013-09-09 20:10:00,
2013-09-09 16:14:00,66.6,45.2,30.10,WSW,241,7.0,14.0,46,0.00,,CLR,0.00,253.00,VWS V14.01,2013-09-09 20:14:00,
2013-09-09 16:15:00,67.1,45.7,30.11,South,190,7.0,10.0,46,0.00,,CLR,0.00,316.00,VWS V14.01,2013-09-09 20:15:00,
2013-09-09 16:19:00,66.3,44.9,30.09,WSW,255,2.0,10.0,46,0.00,,CLR,0.00,243.00,VWS V14.01,2013-09-09 20:19:00,
2013-09-09 16:20:00,66.9,44.3,30.10,South,182,9.0,11.0,44,0.00,,CLR,0.00,359.00,VWS V14.01,2013-09-09 20:20:00,
2013-09-09 16:24:00,66.2,45.4,30.09,SW,221,7.0,7.0,47,0.00,,CLR,0.00,292.00,VWS V14.01,2013-09-09 20:24:00,
2013-09-09 16:25:00,66.9,45.5,30.10,SW,225,5.0,14.0,46,0.00,,CLR,0.00,418.00,VWS V14.01,2013-09-09 20:25:00,
2013-09-09 16:29:00,66.4,45.6,30.10,South,176,9.0,12.0,47,0.00,,CLR,0.00,315.00,VWS V14.01,2013-09-09 20:29:00,
2013-09-09 16:30:00,67.0,45.0,30.10,West,281,5.0,9.0,45,0.00,,CLR,0.00,383.00,VWS V14.01,2013-09-09 20:30:00,
2013-09-09 16:34:00,66.5,45.7,30.10,South,189,2.0,5.0,47,0.00,,CLR,0.00,260.00,VWS V14.01,2013-09-09 20:34:00,
2013-09-09 16:35:00,67.3,44.7,30.11,West,263,5.0,12.0,44,0.00,,CLR,0.00,524.00,VWS V14.01,2013-09-09 20:35:00,
2013-09-09 16:40:00,66.8,46.5,30.09,South,188,1.0,7.0,48,0.00,,CLR,0.00,271.00,VWS V14.01,2013-09-09 20:40:00,
2013-09-09 16:45:00,66.8,46.5,30.10,SSW,200,5.0,8.0,48,0.00,,CLR,0.00,295.00,VWS V14.01,2013-09-09 20:45:00,
2013-09-09 16:50:00,67.0,47.2,30.10,SSW,197,7.0,7.0,49,0.00,,CLR,0.00,309.00,VWS V14.01,2013-09-09 20:50:00,
2013-09-09 16:55:00,67.2,46.9,30.09,WSW,238,7.0,11.0,48,0.00,,CLR,0.00,251.00,VWS V14.01,2013-09-09 20:55:00,
2013-09-09 17:00:00,66.8,47.0,30.09,SSE,162,2.0,11.0,49,0.00,,CLR,0.00,193.00,VWS V14.01,2013-09-09 21:00:00,
2013-09-09 17:05:00,66.5,46.8,30.09,SW,221,4.0,10.0,49,0.00,,CLR,0.00,206.00,VWS V14.01,2013-09-09 21:05:00,
2013-09-09 17:10:00,66.3,47.1,30.09,South,179,7.0,10.0,50,0.00,,CLR,0.00,248.00,VWS V14.01,2013-09-09 21:10:00,
2013-09-09 17:15:00,66.5,47.3,30.09,SSE,153,4.0,11.0,50,0.00,,CLR,0.00,248.00,VWS V14.01,2013-09-09 21:15:00,
2013-09-09 17:20:00,66.8,48.1,30.09,South,178,7.0,7.0,51,0.00,,CLR,0.00,214.00,VWS V14.01,2013-09-09 21:20:00,
2013-09-09 17:25:00,66.8,48.1,30.09,SW,221,2.0,8.0,51,0.00,,CLR,0.00,165.00,VWS V14.01,2013-09-09 21:25:00,
2013-09-09 17:30:00,66.6,47.9,30.09,SW,215,4.0,9.0,51,0.00,,CLR,0.00,211.00,VWS V14.01,2013-09-09 21:30:00,
2013-09-09 17:35:00,66.0,47.9,30.09,WSW,248,12.0,12.0,52,0.00,,CLR,0.00,246.00,VWS V14.01,2013-09-09 21:35:00,
2013-09-09 17:40:00,66.6,45.8,30.10,SSW,209,4.0,5.0,47,0.00,,CLR,0.00,246.00,VWS V14.01,2013-09-09 21:40:00,
2013-09-09 17:41:00,66.2,47.6,30.09,SSW,211,3.0,8.0,51,0.00,,CLR,0.00,229.00,VWS V14.01,2013-09-09 21:41:00,
2013-09-09 17:45:00,66.8,45.9,30.09,SW,215,5.0,14.0,47,0.00,,CLR,0.00,309.00,VWS V14.01,2013-09-09 21:45:00,
2013-09-09 17:46:00,66.3,47.1,30.09,SW,232,9.0,14.0,50,0.00,,CLR,0.00,183.00,VWS V14.01,2013-09-09 21:46:00,
2013-09-09 17:50:00,66.8,46.5,30.09,SW,226,1.0,8.0,48,0.00,,CLR,0.00,320.00,VWS V14.01,2013-09-09 21:50:00,
2013-09-09 17:51:00,66.0,46.8,30.09,West,259,13.0,13.0,50,0.00,,CLR,0.00,158.00,VWS V14.01,2013-09-09 21:51:00,
2013-09-09 17:55:00,67.2,46.9,30.09,SW,223,5.0,7.0,48,0.00,,CLR,0.00,325.00,VWS V14.01,2013-09-09 21:55:00,
2013-09-09 17:56:00,65.8,46.1,30.09,SSW,207,6.0,12.0,49,0.00,,CLR,0.00,95.00,VWS V14.01,2013-09-09 21:56:00,
2013-09-09 18:00:00,67.1,47.3,30.09,SSW,212,9.0,11.0,49,0.00,,CLR,0.00,229.00,VWS V14.01,2013-09-09 22:00:00,
2013-09-09 18:01:00,65.3,46.2,30.09,WSW,246,7.0,11.0,50,0.00,,CLR,0.00,60.00,VWS V14.01,2013-09-09 22:01:00,
2013-09-09 18:05:00,66.7,47.0,30.09,SW,221,3.0,11.0,49,0.00,,CLR,0.00,214.00,VWS V14.01,2013-09-09 22:05:00,
2013-09-09 18:06:00,64.9,46.4,30.09,West,265,7.0,11.0,51,0.00,,CLR,0.00,58.00,VWS V14.01,2013-09-09 22:06:00,
2013-09-09 18:10:00,66.4,46.7,30.09,West,280,6.0,11.0,49,0.00,,CLR,0.00,239.00,VWS V14.01,2013-09-09 22:10:00,
2013-09-09 18:11:00,64.6,45.6,30.09,SW,220,2.0,9.0,50,0.00,,CLR,0.00,49.00,VWS V14.01,2013-09-09 22:11:00,
2013-09-09 18:15:00,66.3,47.1,30.09,South,171,7.0,10.0,50,0.00,,CLR,0.00,281.00,VWS V14.01,2013-09-09 22:15:00,
2013-09-09 18:16:00,64.4,45.9,30.09,SSW,200,0.0,7.0,51,0.00,,CLR,0.00,54.00,VWS V14.01,2013-09-09 22:16:00,
2013-09-09 18:20:00,66.6,47.4,30.09,SSW,210,4.0,11.0,50,0.00,,CLR,0.00,278.00,VWS V14.01,2013-09-09 22:20:00,
2013-09-09 18:21:00,64.3,45.8,30.09,SW,217,1.0,7.0,51,0.00,,CLR,0.00,49.00,VWS V14.01,2013-09-09 22:21:00,
2013-09-09 18:25:00,66.9,47.7,30.09,SW,233,3.0,9.0,50,0.00,,CLR,0.00,241.00,VWS V14.01,2013-09-09 22:25:00,
2013-09-09 18:26:00,64.1,46.1,30.09,SW,224,4.0,7.0,52,0.00,,CLR,0.00,42.00,VWS V14.01,2013-09-09 22:26:00,
2013-09-09 18:30:00,66.9,48.2,30.09,WSW,241,8.0,8.0,51,0.00,,CLR,0.00,244.00,VWS V14.01,2013-09-09 22:30:00,
2013-09-09 18:31:00,63.8,45.9,30.09,SW,219,5.0,8.0,52,0.00,,CLR,0.00,32.00,VWS V14.01,2013-09-09 22:31:00,
2013-09-09 18:35:00,66.4,47.7,30.09,South,178,10.0,12.0,51,0.00,,CLR,0.00,121.00,VWS V14.01,2013-09-09 22:35:00,
2013-09-09 18:37:00,63.5,46.6,30.09,SW,223,4.0,6.0,54,0.00,,CLR,0.00,25.00,VWS V14.01,2013-09-09 22:37:00,
2013-09-09 18:40:00,66.1,47.5,30.09,SSW,212,6.0,12.0,51,0.00,,CLR,0.00,243.00,VWS V14.01,2013-09-09 22:40:00,
2013-09-09 18:42:00,63.3,46.4,30.09,SW,223,0.0,5.0,54,0.00,,CLR,0.00,19.00,VWS V14.01,2013-09-09 22:42:00,
2013-09-09 18:45:00,66.4,47.7,30.09,WSW,237,9.0,9.0,51,0.00,,CLR,0.00,113.00,VWS V14.01,2013-09-09 22:45:00,
2013-09-09 18:47:00,62.9,46.5,30.09,SSW,198,1.0,5.0,55,0.00,,CLR,0.00,14.00,VWS V14.01,2013-09-09 22:47:00,
2013-09-09 18:50:00,66.2,46.5,30.09,SW,232,9.0,14.0,49,0.00,,CLR,0.00,134.00,VWS V14.01,2013-09-09 22:50:00,
2013-09-09 18:52:00,62.5,46.6,30.08,SSW,202,2.0,6.0,56,0.00,,CLR,0.00,11.00,VWS V14.01,2013-09-09 22:52:00,
2013-09-09 18:55:00,66.0,46.3,30.09,SW,235,8.0,13.0,49,0.00,,CLR,0.00,149.00,VWS V14.01,2013-09-09 22:55:00,
2013-09-09 18:57:00,62.2,46.3,30.08,SSW,200,0.0,5.0,56,0.00,,CLR,0.00,5.00,VWS V14.01,2013-09-09 22:57:00,
2013-09-09 19:00:00,65.7,46.0,30.09,SW,232,7.0,12.0,49,0.00,,CLR,0.00,86.00,VWS V14.01,2013-09-09 23:00:00,
2013-09-09 19:02:00,62.0,46.6,30.09,SSW,200,2.0,5.0,57,0.00,,CLR,0.00,0.00,VWS V14.01,2013-09-09 23:02:00,
2013-09-09 19:05:00,65.2,46.1,30.09,SW,223,3.0,11.0,50,0.00,,CLR,0.00,60.00,VWS V14.01,2013-09-09 23:05:00,
2013-09-09 19:07:00,61.7,46.8,30.09,SSW,200,2.0,2.0,58,0.00,,CLR,0.00,0.00,VWS V14.01,2013-09-09 23:07:00,
2013-09-09 19:10:00,64.9,45.8,30.09,SSW,212,3.0,11.0,50,0.00,,CLR,0.00,53.00,VWS V14.01,2013-09-09 23:10:00,
2013-09-09 19:12:00,61.5,46.6,30.09,SSW,200,2.0,4.0,58,0.00,,CLR,0.00,0.00,VWS V14.01,2013-09-09 23:12:00,
2013-09-09 19:15:00,64.6,45.6,30.09,SW,231,3.0,9.0,50,0.00,,CLR,0.00,49.00,VWS V14.01,2013-09-09 23:15:00,
2013-09-09 19:17:00,61.4,47.0,30.08,SSW,200,2.0,4.0,59,0.00,,CLR,0.00,0.00,VWS V14.01,2013-09-09 23:17:00,
2013-09-09 19:20:00,64.4,45.9,30.09,SSW,200,1.0,7.0,51,0.00,,CLR,0.00,54.00,VWS V14.01,2013-09-09 23:20:00,
2013-09-09 19:22:00,61.1,47.1,30.08,SSW,200,3.0,5.0,60,0.00,,CLR,0.00,0.00,VWS V14.01,2013-09-09 23:22:00,
2013-09-09 19:25:00,64.3,46.3,30.09,SW,217,0.0,7.0,52,0.00,,CLR,0.00,49.00,VWS V14.01,2013-09-09 23:25:00,
2013-09-09 19:27:00,60.8,46.8,30.08,South,178,2.0,7.0,60,0.00,,CLR,0.00,0.00,VWS V14.01,2013-09-09 23:27:00,
2013-09-09 19:30:00,64.1,46.1,30.09,SSW,209,2.0,7.0,52,0.00,,CLR,0.00,42.00,VWS V14.01,2013-09-09 23:30:00,
2013-09-09 19:33:00,60.6,47.1,30.08,South,187,4.0,6.0,61,0.00,,CLR,0.00,0.00,VWS V14.01,2013-09-09 23:33:00,
2013-09-09 19:35:00,63.8,45.9,30.09,SSW,205,6.0,8.0,52,0.00,,CLR,0.00,32.00,VWS V14.01,2013-09-09 23:35:00,
2013-09-09 19:38:00,60.5,47.4,30.08,SW,215,1.0,7.0,62,0.00,,CLR,0.00,0.00,VWS V14.01,2013-09-09 23:38:00,
2013-09-09 19:40:00,63.5,46.6,30.09,SW,223,4.0,6.0,54,0.00,,CLR,0.00,25.00,VWS V14.01,2013-09-09 23:40:00,
2013-09-09 19:43:00,60.5,47.4,30.08,South,185,5.0,6.0,62,0.00,,CLR,0.00,0.00,VWS V14.01,2013-09-09 23:43:00,
2013-09-09 19:45:00,63.3,46.4,30.09,SW,223,0.0,5.0,54,0.00,,CLR,0.00,19.00,VWS V14.01,2013-09-09 23:45:00,
2013-09-09 19:48:00,60.4,47.3,30.08,South,190,3.0,6.0,62,0.00,,CLR,0.00,0.00,VWS V14.01,2013-09-09 23:48:00,
2013-09-09 19:50:00,62.9,46.5,30.09,SSW,198,1.0,5.0,55,0.00,,CLR,0.00,14.00,VWS V14.01,2013-09-09 23:50:00,
2013-09-09 19:53:00,60.4,47.3,30.08,SSW,192,2.0,4.0,62,0.00,,CLR,0.00,0.00,VWS V14.01,2013-09-09 23:53:00,
2013-09-09 19:55:00,62.5,46.6,30.08,SSW,202,2.0,6.0,56,0.00,,CLR,0.00,11.00,VWS V14.01,2013-09-09 23:55:00,
2013-09-09 19:58:00,60.2,47.6,30.08,SW,216,3.0,5.0,63,0.00,,CLR,0.00,0.00,VWS V14.01,2013-09-09 23:58:00,
2013-09-09 20:00:00,62.2,46.3,30.08,SSW,200,0.0,5.0,56,0.00,,CLR,0.00,5.00,VWS V14.01,2013-09-10 00:00:00,
2013-09-09 20:03:00,60.1,47.5,30.08,SSW,201,4.0,4.0,63,0.00,,CLR,0.00,0.00,VWS V14.01,2013-09-10 00:03:00,
2013-09-09 20:05:00,62.0,46.6,30.09,SSW,200,2.0,5.0,57,0.00,,CLR,0.00,0.00,VWS V14.01,2013-09-10 00:05:00,
2013-09-09 20:08:00,60.0,47.4,30.08,South,186,4.0,6.0,63,0.00,,CLR,0.00,0.00,VWS V14.01,2013-09-10 00:08:00,
2013-09-09 20:10:00,61.7,46.8,30.08,SSW,200,1.0,4.0,58,0.00,,CLR,0.00,0.00,VWS V14.01,2013-09-10 00:10:00,
2013-09-09 20:13:00,60.0,47.8,30.08,South,186,6.0,7.0,64,0.00,,CLR,0.00,0.00,VWS V14.01,2013-09-10 00:13:00,
2013-09-09 20:15:00,61.5,46.6,30.08,SSW,200,3.0,4.0,58,0.00,,CLR,0.00,0.00,VWS V14.01,2013-09-10 00:15:00,
2013-09-09 20:19:00,60.1,47.9,30.09,SW,221,2.0,8.0,64,0.00,,CLR,0.00,0.00,VWS V14.01,2013-09-10 00:19:00,
2013-09-09 20:20:00,61.4,47.0,30.08,SSW,200,2.0,4.0,59,0.00,,CLR,0.00,0.00,VWS V14.01,2013-09-10 00:20:00,
2013-09-09 20:24:00,60.1,47.9,30.09,WSW,248,6.0,8.0,64,0.00,,CLR,0.00,0.00,VWS V14.01,2013-09-10 00:24:00,
2013-09-09 20:25:00,61.1,47.1,30.08,SSW,200,5.0,5.0,60,0.00,,CLR,0.00,0.00,VWS V14.01,2013-09-10 00:25:00,
2013-09-09 20:29:00,60.1,47.9,30.09,SSW,200,3.0,6.0,64,0.00,,CLR,0.00,0.00,VWS V14.01,2013-09-10 00:29:00,
2013-09-09 20:30:00,60.9,46.9,30.08,SSW,200,2.0,5.0,60,0.00,,CLR,0.00,0.00,VWS V14.01,2013-09-10 00:30:00,
2013-09-09 20:34:00,60.1,47.5,30.09,SSW,211,4.0,12.0,63,0.00,,CLR,0.00,0.00,VWS V14.01,2013-09-10 00:34:00,
2013-09-09 20:35:00,60.6,47.1,30.08,South,180,4.0,7.0,61,0.00,,CLR,0.00,0.00,VWS V14.01,2013-09-10 00:35:00,
2013-09-09 20:39:00,60.1,47.9,30.09,SSW,199,7.0,17.0,64,0.00,,CLR,0.00,0.00,VWS V14.01,2013-09-10 00:39:00,
2013-09-09 20:40:00,60.5,47.4,30.08,South,185,2.0,8.0,62,0.00,,CLR,0.00,0.00,VWS V14.01,2013-09-10 00:40:00,
2013-09-09 20:44:00,60.0,47.8,30.09,SSW,200,7.0,12.0,64,0.00,,CLR,0.00,0.00,VWS V14.01,2013-09-10 00:44:00,
2013-09-09 20:45:00,60.5,47.4,30.08,South,171,0.0,7.0,62,0.00,,CLR,0.00,0.00,VWS V14.01,2013-09-10 00:45:00,
2013-09-09 20:49:00,59.9,47.7,30.10,South,180,6.0,9.0,64,0.00,,CLR,0.00,0.00,VWS V14.01,2013-09-10 00:49:00,
2013-09-09 20:50:00,60.4,47.3,30.09,South,179,6.0,6.0,62,0.00,,CLR,0.00,0.00,VWS V14.01,2013-09-10 00:50:00,
2013-09-09 20:54:00,59.7,47.9,30.10,SSW,200,7.0,9.0,65,0.00,,CLR,0.00,0.00,VWS V14.01,2013-09-10 00:54:00,
2013-09-09 20:55:00,60.4,47.3,30.08,SSW,192,2.0,6.0,62,0.00,,CLR,0.00,0.00,VWS V14.01,2013-09-10 00:55:00,
2013-09-09 20:59:00,59.5,47.7,30.09,SW,227,4.0,8.0,65,0.00,,CLR,0.00,0.00,VWS V14.01,2013-09-10 00:59:00,
2013-09-09 21:00:00,60.2,47.6,30.08,SW,216,4.0,6.0,63,0.00,,CLR,0.00,0.00,VWS V14.01,2013-09-10 01:00:00,
2013-09-09 21:05:00,59.3,48.0,30.10,South,186,1.0,10.0,66,0.00,,CLR,0.00,0.00,VWS V14.01,2013-09-10 01:05:00,
2013-09-09 21:10:00,59.1,48.2,30.10,SSW,193,5.0,8.0,67,0.00,,CLR,0.00,0.00,VWS V14.01,2013-09-10 01:10:00,
2013-09-09 21:15:00,59.0,48.1,30.09,SSW,199,0.0,7.0,67,0.00,,CLR,0.00,0.00,VWS V14.01,2013-09-10 01:15:00,
2013-09-09 21:20:00,58.8,48.3,30.09,SSW,196,2.0,8.0,68,0.00,,CLR,0.00,0.00,VWS V14.01,2013-09-10 01:20:00,
2013-09-09 21:25:00,58.7,48.2,30.10,SSW,200,4.0,9.0,68,0.00,,CLR,0.00,0.00,VWS V14.01,2013-09-10 01:25:00,
2013-09-09 21:30:00,58.6,48.5,30.10,SW,215,3.0,6.0,69,0.00,,CLR,0.00,0.00,VWS V14.01,2013-09-10 01:30:00,
2013-09-09 21:35:00,58.4,48.3,30.10,SSW,207,1.0,5.0,69,0.00,,CLR,0.00,0.00,VWS V14.01,2013-09-10 01:35:00,
2013-09-09 21:40:00,58.4,48.3,30.09,SW,217,1.0,6.0,69,0.00,,CLR,0.00,0.00,VWS V14.01,2013-09-10 01:40:00,
2013-09-09 21:45:00,58.2,48.1,30.09,SSW,193,0.0,6.0,69,0.00,,CLR,0.00,0.00,VWS V14.01,2013-09-10 01:45:00,
2013-09-09 21:50:00,60.0,47.8,30.09,SW,214,3.0,12.0,64,0.00,,CLR,0.00,0.00,VWS V14.01,2013-09-10 01:50:00,
2013-09-09 21:51:00,58.2,48.5,30.10,SSW,207,3.0,6.0,70,0.00,,CLR,0.00,0.00,VWS V14.01,2013-09-10 01:51:00,
2013-09-09 21:55:00,59.8,47.6,30.10,SW,228,3.0,11.0,64,0.00,,CLR,0.00,0.00,VWS V14.01,2013-09-10 01:55:00,
2013-09-09 21:56:00,58.1,48.4,30.10,SSW,199,1.0,5.0,70,0.00,,CLR,0.00,0.00,VWS V14.01,2013-09-10 01:56:00,
2013-09-09 22:00:00,59.6,47.8,30.10,SSW,211,5.0,9.0,65,0.00,,CLR,0.00,0.00,VWS V14.01,2013-09-10 02:00:00,
2013-09-09 22:01:00,58.1,48.4,30.10,SW,222,2.0,6.0,70,0.00,,CLR,0.00,0.00,VWS V14.01,2013-09-10 02:01:00,
2013-09-09 22:05:00,59.4,48.0,30.09,SSW,204,7.0,8.0,66,0.00,,CLR,0.00,0.00,VWS V14.01,2013-09-10 02:05:00,
2013-09-09 22:06:00,58.0,48.7,30.10,SW,225,3.0,4.0,71,0.00,,CLR,0.00,0.00,VWS V14.01,2013-09-10 02:06:00,
2013-09-09 22:10:00,59.3,48.0,30.09,WSW,250,2.0,10.0,66,0.00,,CLR,0.00,0.00,VWS V14.01,2013-09-10 02:10:00,
2013-09-09 22:11:00,57.9,48.6,30.10,SSW,212,3.0,6.0,71,0.00,,CLR,0.00,0.00,VWS V14.01,2013-09-10 02:11:00,
2013-09-09 22:15:00,59.1,48.2,30.10,South,173,5.0,8.0,67,0.00,,CLR,0.00,0.00,VWS V14.01,2013-09-10 02:15:00,
2013-09-09 22:16:00,57.8,48.5,30.10,SSW,208,4.0,5.0,71,0.00,,CLR,0.00,0.00,VWS V14.01,2013-09-10 02:16:00,
2013-09-09 22:20:00,58.9,48.4,30.09,South,182,3.0,7.0,68,0.00,,CLR,0.00,0.00,VWS V14.01,2013-09-10 02:20:00,
2013-09-09 22:21:00,57.7,48.8,30.10,SSW,202,4.0,4.0,72,0.00,,CLR,0.00,0.00,VWS V14.01,2013-09-10 02:21:00,
2013-09-09 22:25:00,58.8,48.3,30.09,SSW,207,4.0,8.0,68,0.00,,CLR,0.00,0.00,VWS V14.01,2013-09-10 02:25:00,
2013-09-09 22:26:00,57.5,48.6,30.09,SSW,194,2.0,6.0,72,0.00,,CLR,0.00,0.00,VWS V14.01,2013-09-10 02:26:00,
2013-09-09 22:30:00,58.6,48.1,30.09,SW,227,3.0,9.0,68,0.00,,CLR,0.00,0.00,VWS V14.01,2013-09-10 02:30:00,
2013-09-09 22:31:00,57.5,48.9,30.10,South,181,0.0,8.0,73,0.00,,CLR,0.00,0.00,VWS V14.01,2013-09-10 02:31:00,
2013-09-09 22:35:00,58.5,48.4,30.10,SW,215,2.0,6.0,69,0.00,,CLR,0.00,0.00,VWS V14.01,2013-09-10 02:35:00,
2013-09-09 22:37:00,57.3,48.7,30.10,South,184,3.0,8.0,73,0.00,,CLR,0.00,0.00,VWS V14.01,2013-09-10 02:37:00,
2013-09-09 22:40:00,58.4,48.3,30.10,SSW,206,2.0,5.0,69,0.00,,CLR,0.00,0.00,VWS V14.01,2013-09-10 02:40:00,
2013-09-09 22:42:00,57.2,49.0,30.10,SSW,213,3.0,6.0,74,0.00,,CLR,0.00,0.00,VWS V14.01,2013-09-10 02:42:00,
2013-09-09 22:45:00,58.3,49.0,30.09,SW,217,0.0,6.0,71,0.00,,CLR,0.00,0.00,VWS V14.01,2013-09-10 02:45:00,
2013-09-09 22:47:00,57.1,48.9,30.10,SSW,193,3.0,6.0,74,0.00,,CLR,0.00,0.00,VWS V14.01,2013-09-10 02:47:00,
2013-09-09 22:50:00,58.2,48.5,30.09,SSW,193,1.0,6.0,70,0.00,,CLR,0.00,0.00,VWS V14.01,2013-09-10 02:50:00,
2013-09-09 22:52:00,57.0,49.2,30.10,SSW,195,4.0,7.0,75,0.00,,CLR,0.00,0.00,VWS V14.01,2013-09-10 02:52:00,
2013-09-09 22:55:00,58.1,48.4,30.10,SW,217,2.0,6.0,70,0.00,,CLR,0.00,0.00,VWS V14.01,2013-09-10 02:55:00,
2013-09-09 22:57:00,56.9,49.1,30.09,SSW,198,1.0,9.0,75,0.00,,CLR,0.00,0.00,VWS V14.01,2013-09-10 02:57:00,
2013-09-09 23:00:00,58.1,48.4,30.10,SSW,200,0.0,5.0,70,0.00,,CLR,0.00,0.00,VWS V14.01,2013-09-10 03:00:00,
2013-09-09 23:02:00,56.9,49.1,30.09,SSW,193,1.0,8.0,75,0.00,,CLR,0.00,0.00,VWS V14.01,2013-09-10 03:02:00,
2013-09-09 23:05:00,58.0,48.3,30.10,SW,222,2.0,6.0,70,0.00,,CLR,0.00,0.00,VWS V14.01,2013-09-10 03:05:00,
2013-09-09 23:07:00,56.8,49.3,30.08,South,175,5.0,9.0,76,0.00,,CLR,0.00,0.00,VWS V14.01,2013-09-10 03:07:00,
2013-09-09 23:10:00,58.0,48.7,30.10,SSW,204,5.0,5.0,71,0.00,,CLR,0.00,0.00,VWS V14.01,2013-09-10 03:10:00,
2013-09-09 23:12:00,56.8,49.3,30.09,SSW,208,4.0,7.0,76,0.00,,CLR,0.00,0.00,VWS V14.01,2013-09-10 03:12:00,
2013-09-09 23:15:00,57.9,48.6,30.10,SSW,212,2.0,6.0,71,0.00,,CLR,0.00,0.00,VWS V14.01,2013-09-10 03:15:00,
2013-09-09 23:17:00,56.8,49.3,30.08,South,182,4.0,6.0,76,0.00,,CLR,0.00,0.00,VWS V14.01,2013-09-10 03:17:00,
2013-09-09 23:20:00,57.8,48.5,30.10,SSW,208,4.0,5.0,71,0.00,,CLR,0.00,0.00,VWS V14.01,2013-09-10 03:20:00,
2013-09-09 23:22:00,56.7,49.2,30.08,South,177,5.0,6.0,76,0.00,,CLR,0.00,0.00,VWS V14.01,2013-09-10 03:22:00,
2013-09-09 23:25:00,57.6,48.7,30.10,South,188,3.0,5.0,72,0.00,,CLR,0.00,0.00,VWS V14.01,2013-09-10 03:25:00,
2013-09-09 23:27:00,56.7,49.2,30.08,SSW,199,0.0,2.0,76,0.00,,CLR,0.00,0.00,VWS V14.01,2013-09-10 03:27:00,
2013-09-09 23:30:00,57.5,48.6,30.09,SSW,194,1.0,6.0,72,0.00,,CLR,0.00,0.00,VWS V14.01,2013-09-10 03:30:00,
2013-09-09 23:32:00,56.6,49.1,30.09,South,191,2.0,4.0,76,0.00,,CLR,0.00,0.00,VWS V14.01,2013-09-10 03:32:00,
2013-09-09 23:35:00,57.5,48.9,30.10,South,180,1.0,8.0,73,0.00,,CLR,0.00,0.00,VWS V14.01,2013-09-10 03:35:00,
2013-09-09 23:37:00,56.6,49.1,30.09,SSW,213,0.0,6.0,76,0.00,,CLR,0.00,0.00,VWS V14.01,2013-09-10 03:37:00,
2013-09-09 23:40:00,57.4,48.8,30.10,South,180,5.0,8.0,73,0.00,,CLR,0.00,0.00,VWS V14.01,2013-09-10 03:40:00,
2013-09-09 23:43:00,56.5,49.4,30.09,SSW,202,1.0,2.0,77,0.00,,CLR,0.00,0.00,VWS V14.01,2013-09-10 03:43:00,
2013-09-09 23:45:00,57.2,49.0,30.10,SSW,213,2.0,6.0,74,0.00,,CLR,0.00,0.00,VWS V14.01,2013-09-10 03:45:00,
2013-09-09 23:48:00,56.4,49.3,30.09,SW,224,3.0,3.0,77,0.00,,CLR,0.00,0.00,VWS V14.01,2013-09-10 03:48:00,
2013-09-09 23:50:00,57.1,48.9,30.10,SSW,193,3.0,6.0,74,0.00,,CLR,0.00,0.00,VWS V14.01,2013-09-10 03:50:00,
2013-09-09 23:53:00,56.4,49.3,30.09,SW,221,2.0,7.0,77,0.00,,CLR,0.00,0.00,VWS V14.01,2013-09-10 03:53:00,
2013-09-09 23:55:00,57.0,49.2,30.10,SSW,195,4.0,7.0,75,0.00,,CLR,0.00,0.00,VWS V14.01,2013-09-10 03:55:00,
2013-09-09 23:58:00,56.3,49.2,30.09,SSW,209,6.0,6.0,77,0.00,,CLR,0.00,0.00,VWS V14.01,2013-09-10 03:58:00,